| Date | Time | Temp. (oF) | Dew Point (oF) | Rel. Hum. (%) | Press. (in.) | Wind Dir. | Wind Speed (mph) | Hourly Rainfall (in.) |
|
|---|---|---|---|---|---|---|---|---|---|
| 1 | 11/17 | 00:00 | 38 | 26 | 63 | 29.99 | SW | 4 | 0.00 |
| 2 | 11/16 | 23:00 | 39 | 27 | 63 | 29.99 | SW | 4 | 0.00 |
| 3 | 11/16 | 22:00 | 39 | 26 | 61 | 29.97 | W | 9 | 0.00 |
| 4 | 11/16 | 21:00 | 39 | 29 | 68 | 29.95 | WSW | 5 | 0.00 |
| 5 | 11/16 | 20:00 | 40 | 29 | 65 | 29.94 | W | 9 | 0.00 |
| 6 | 11/16 | 19:00 | 41 | 28 | 62 | 29.92 | SW | 5 | 0.00 |
| 7 | 11/16 | 18:00 | 42 | 27 | 56 | 29.90 | SW | 4 | 0.00 |
| 8 | 11/16 | 17:00 | 43 | 28 | 56 | 29.86 | SW | 6 | 0.00 |
| 9 | 11/16 | 16:00 | 44 | 28 | 55 | 29.83 | WSW | 12 | 0.00 |
| 10 | 11/16 | 15:00 | 44 | 28 | 55 | 29.81 | WSW | 2 | 0.00 |
| 11 | 11/16 | 14:00 | 45 | 30 | 57 | 29.78 | W | 4 | 0.00 |
| 12 | 11/16 | 13:00 | 45 | 31 | 60 | 29.78 | WSW | 17 | 0.00 |
| 13 | 11/16 | 12:00 | 44 | 29 | 56 | 29.76 | WNW | 12 | 0.00 |
| 14 | 11/16 | 11:00 | 44 | 29 | 57 | 29.75 | NW | 15 | 0.00 |
| 15 | 11/16 | 10:00 | 44 | 31 | 61 | 29.73 | SW | 2 | 0.00 |
| 16 | 11/16 | 09:00 | 44 | 32 | 63 | 29.71 | WNW | 13 | 0.00 |
| 17 | 11/16 | 08:00 | 44 | 32 | 64 | 29.69 | WSW | 2 | 0.00 |
| 18 | 11/16 | 07:00 | 44 | 33 | 67 | 29.66 | SE | 2 | 0.00 |
| 19 | 11/16 | 06:00 | 44 | 34 | 69 | 29.62 | SW | 6 | 0.00 |
| 20 | 11/16 | 05:00 | 44 | 34 | 70 | 29.60 | WNW | 10 | 0.00 |
| 21 | 11/16 | 04:00 | 43 | 34 | 73 | 29.58 | W | 12 | 0.00 |
| 22 | 11/16 | 03:00 | 44 | 35 | 73 | 29.58 | W | 6 | 0.00 |
| 23 | 11/16 | 02:00 | 45 | 35 | 70 | 29.56 | WNW | 5 | 0.00 |
| 24 | 11/16 | 01:00 | 49 | 38 | 66 | 29.52 | WSW | 5 | 0.00 |